sensor_id;sensor_type;location;lat;lon;timestamp;P1;durP1;ratioP1;P2;durP2;ratioP2
24261;SDS011;12385;51.412;5.540;2024-01-06T00:01:42;82.72;;;42.83;;
24261;SDS011;12385;51.412;5.540;2024-01-06T00:04:08;80.38;;;41.35;;
24261;SDS011;12385;51.412;5.540;2024-01-06T00:06:34;71.13;;;40.22;;
24261;SDS011;12385;51.412;5.540;2024-01-06T00:08:59;69.13;;;37.63;;
24261;SDS011;12385;51.412;5.540;2024-01-06T00:11:25;67.22;;;38.25;;
24261;SDS011;12385;51.412;5.540;2024-01-06T00:13:51;71.00;;;37.58;;
24261;SDS011;12385;51.412;5.540;2024-01-06T00:16:17;64.22;;;36.05;;
24261;SDS011;12385;51.412;5.540;2024-01-06T00:18:43;65.90;;;37.75;;
24261;SDS011;12385;51.412;5.540;2024-01-06T00:21:10;67.93;;;37.67;;
24261;SDS011;12385;51.412;5.540;2024-01-06T00:23:40;65.10;;;37.78;;
24261;SDS011;12385;51.412;5.540;2024-01-06T00:26:09;63.70;;;35.72;;
24261;SDS011;12385;51.412;5.540;2024-01-06T00:28:35;54.55;;;33.80;;
24261;SDS011;12385;51.412;5.540;2024-01-06T00:31:01;50.00;;;32.38;;
24261;SDS011;12385;51.412;5.540;2024-01-06T00:33:27;50.45;;;30.30;;
24261;SDS011;12385;51.412;5.540;2024-01-06T00:35:53;49.78;;;29.35;;
24261;SDS011;12385;51.412;5.540;2024-01-06T00:38:20;43.03;;;28.17;;
24261;SDS011;12385;51.412;5.540;2024-01-06T00:40:45;41.35;;;26.42;;
24261;SDS011;12385;51.412;5.540;2024-01-06T00:43:12;43.90;;;28.05;;
24261;SDS011;12385;51.412;5.540;2024-01-06T00:45:38;45.05;;;28.10;;
24261;SDS011;12385;51.412;5.540;2024-01-06T00:48:04;42.55;;;27.50;;
24261;SDS011;12385;51.412;5.540;2024-01-06T00:50:30;44.15;;;28.80;;
24261;SDS011;12385;51.412;5.540;2024-01-06T00:52:55;37.75;;;25.30;;
24261;SDS011;12385;51.412;5.540;2024-01-06T00:55:21;40.13;;;25.92;;
24261;SDS011;12385;51.412;5.540;2024-01-06T00:57:48;41.60;;;26.60;;
24261;SDS011;12385;51.412;5.540;2024-01-06T01:00:14;42.95;;;26.10;;
24261;SDS011;12385;51.412;5.540;2024-01-06T01:02:40;35.65;;;24.30;;
24261;SDS011;12385;51.412;5.540;2024-01-06T01:05:07;33.95;;;22.92;;
24261;SDS011;12385;51.412;5.540;2024-01-06T01:07:33;33.20;;;23.60;;
24261;SDS011;12385;51.412;5.540;2024-01-06T01:09:59;35.78;;;24.40;;
24261;SDS011;12385;51.412;5.540;2024-01-06T01:12:26;37.00;;;26.05;;
24261;SDS011;12385;51.412;5.540;2024-01-06T01:14:52;39.85;;;26.58;;
24261;SDS011;12385;51.412;5.540;2024-01-06T01:17:18;39.65;;;27.08;;
24261;SDS011;12385;51.412;5.540;2024-01-06T01:19:44;45.47;;;28.58;;
24261;SDS011;12385;51.412;5.540;2024-01-06T01:22:10;44.30;;;28.63;;
24261;SDS011;12385;51.412;5.540;2024-01-06T01:24:39;45.63;;;29.67;;
24261;SDS011;12385;51.412;5.540;2024-01-06T01:27:04;46.70;;;29.45;;
24261;SDS011;12385;51.412;5.540;2024-01-06T01:29:30;49.72;;;30.23;;
24261;SDS011;12385;51.412;5.540;2024-01-06T01:31:56;48.20;;;30.20;;
24261;SDS011;12385;51.412;5.540;2024-01-06T01:34:21;56.05;;;32.25;;
24261;SDS011;12385;51.412;5.540;2024-01-06T01:36:47;49.55;;;30.75;;
24261;SDS011;12385;51.412;5.540;2024-01-06T01:39:13;51.13;;;30.73;;
24261;SDS011;12385;51.412;5.540;2024-01-06T01:41:39;49.70;;;30.67;;
24261;SDS011;12385;51.412;5.540;2024-01-06T01:44:05;53.38;;;30.73;;
24261;SDS011;12385;51.412;5.540;2024-01-06T01:46:32;53.15;;;30.60;;
24261;SDS011;12385;51.412;5.540;2024-01-06T01:48:58;55.00;;;29.63;;
24261;SDS011;12385;51.412;5.540;2024-01-06T01:51:29;54.00;;;30.52;;
24261;SDS011;12385;51.412;5.540;2024-01-06T01:53:57;56.47;;;31.50;;
24261;SDS011;12385;51.412;5.540;2024-01-06T01:56:24;59.55;;;30.63;;
24261;SDS011;12385;51.412;5.540;2024-01-06T01:58:50;59.83;;;31.60;;
24261;SDS011;12385;51.412;5.540;2024-01-06T02:01:17;60.67;;;30.55;;
24261;SDS011;12385;51.412;5.540;2024-01-06T02:03:42;61.47;;;31.70;;
24261;SDS011;12385;51.412;5.540;2024-01-06T02:06:08;61.95;;;32.03;;
24261;SDS011;12385;51.412;5.540;2024-01-06T02:08:35;62.60;;;31.80;;
24261;SDS011;12385;51.412;5.540;2024-01-06T02:11:00;61.05;;;31.40;;
24261;SDS011;12385;51.412;5.540;2024-01-06T02:13:35;63.65;;;33.40;;
24261;SDS011;12385;51.412;5.540;2024-01-06T02:16:03;61.83;;;32.78;;
24261;SDS011;12385;51.412;5.540;2024-01-06T02:18:33;60.35;;;31.65;;
24261;SDS011;12385;51.412;5.540;2024-01-06T02:20:59;61.90;;;32.95;;
24261;SDS011;12385;51.412;5.540;2024-01-06T02:23:26;56.03;;;31.40;;
24261;SDS011;12385;51.412;5.540;2024-01-06T02:25:52;59.58;;;32.85;;
24261;SDS011;12385;51.412;5.540;2024-01-06T02:28:18;59.38;;;32.53;;
24261;SDS011;12385;51.412;5.540;2024-01-06T02:30:44;60.17;;;32.47;;
24261;SDS011;12385;51.412;5.540;2024-01-06T02:33:10;57.67;;;31.30;;
24261;SDS011;12385;51.412;5.540;2024-01-06T02:35:38;55.63;;;31.85;;
24261;SDS011;12385;51.412;5.540;2024-01-06T02:38:05;51.20;;;29.88;;
24261;SDS011;12385;51.412;5.540;2024-01-06T02:40:31;50.40;;;29.15;;
24261;SDS011;12385;51.412;5.540;2024-01-06T02:42:57;45.80;;;28.90;;
24261;SDS011;12385;51.412;5.540;2024-01-06T02:45:23;44.95;;;27.30;;
24261;SDS011;12385;51.412;5.540;2024-01-06T02:47:49;49.38;;;29.00;;
24261;SDS011;12385;51.412;5.540;2024-01-06T02:50:16;42.45;;;26.27;;
24261;SDS011;12385;51.412;5.540;2024-01-06T02:52:44;44.65;;;27.73;;
24261;SDS011;12385;51.412;5.540;2024-01-06T02:55:10;47.72;;;27.35;;
24261;SDS011;12385;51.412;5.540;2024-01-06T02:57:37;44.13;;;27.83;;
24261;SDS011;12385;51.412;5.540;2024-01-06T03:00:03;35.05;;;23.38;;
24261;SDS011;12385;51.412;5.540;2024-01-06T03:02:30;34.47;;;22.88;;
24261;SDS011;12385;51.412;5.540;2024-01-06T03:04:55;30.30;;;21.02;;
24261;SDS011;12385;51.412;5.540;2024-01-06T03:07:21;32.45;;;21.42;;
24261;SDS011;12385;51.412;5.540;2024-01-06T03:09:47;28.92;;;20.65;;
24261;SDS011;12385;51.412;5.540;2024-01-06T03:12:12;28.80;;;20.40;;
24261;SDS011;12385;51.412;5.540;2024-01-06T03:14:38;27.15;;;18.98;;
24261;SDS011;12385;51.412;5.540;2024-01-06T03:17:04;28.30;;;19.92;;
24261;SDS011;12385;51.412;5.540;2024-01-06T03:19:30;25.15;;;17.88;;
24261;SDS011;12385;51.412;5.540;2024-01-06T03:21:56;27.15;;;19.05;;
24261;SDS011;12385;51.412;5.540;2024-01-06T03:24:22;27.02;;;19.35;;
24261;SDS011;12385;51.412;5.540;2024-01-06T03:26:49;24.23;;;17.83;;
24261;SDS011;12385;51.412;5.540;2024-01-06T03:29:15;24.02;;;17.45;;
24261;SDS011;12385;51.412;5.540;2024-01-06T03:31:43;24.17;;;17.48;;
24261;SDS011;12385;51.412;5.540;2024-01-06T03:34:09;23.45;;;17.25;;
24261;SDS011;12385;51.412;5.540;2024-01-06T03:36:37;23.00;;;17.35;;
24261;SDS011;12385;51.412;5.540;2024-01-06T03:39:04;25.25;;;17.50;;
24261;SDS011;12385;51.412;5.540;2024-01-06T03:41:29;23.85;;;17.35;;
24261;SDS011;12385;51.412;5.540;2024-01-06T03:43:55;28.58;;;18.88;;
24261;SDS011;12385;51.412;5.540;2024-01-06T03:46:21;24.58;;;17.90;;
24261;SDS011;12385;51.412;5.540;2024-01-06T03:48:47;25.98;;;18.83;;
24261;SDS011;12385;51.412;5.540;2024-01-06T03:51:13;26.42;;;18.40;;
24261;SDS011;12385;51.412;5.540;2024-01-06T03:53:39;22.35;;;15.80;;
24261;SDS011;12385;51.412;5.540;2024-01-06T03:56:07;19.65;;;15.07;;
24261;SDS011;12385;51.412;5.540;2024-01-06T03:58:33;19.52;;;14.90;;
24261;SDS011;12385;51.412;5.540;2024-01-06T04:01:00;21.48;;;15.02;;
24261;SDS011;12385;51.412;5.540;2024-01-06T04:03:26;17.23;;;13.13;;
24261;SDS011;12385;51.412;5.540;2024-01-06T04:05:51;15.32;;;12.15;;
24261;SDS011;12385;51.412;5.540;2024-01-06T04:08:17;14.95;;;11.52;;
24261;SDS011;12385;51.412;5.540;2024-01-06T04:10:43;13.55;;;10.25;;
24261;SDS011;12385;51.412;5.540;2024-01-06T04:13:12;13.27;;;10.57;;
24261;SDS011;12385;51.412;5.540;2024-01-06T04:15:39;11.23;;;9.07;;
24261;SDS011;12385;51.412;5.540;2024-01-06T04:18:05;11.07;;;8.73;;
24261;SDS011;12385;51.412;5.540;2024-01-06T04:20:31;10.00;;;7.85;;
24261;SDS011;12385;51.412;5.540;2024-01-06T04:22:57;8.60;;;7.70;;
24261;SDS011;12385;51.412;5.540;2024-01-06T04:25:23;10.40;;;8.80;;
24261;SDS011;12385;51.412;5.540;2024-01-06T04:27:49;11.23;;;8.80;;
24261;SDS011;12385;51.412;5.540;2024-01-06T04:30:15;11.57;;;9.93;;
24261;SDS011;12385;51.412;5.540;2024-01-06T04:32:44;11.40;;;9.52;;
24261;SDS011;12385;51.412;5.540;2024-01-06T04:35:13;11.52;;;10.00;;
24261;SDS011;12385;51.412;5.540;2024-01-06T04:37:39;13.20;;;10.65;;
24261;SDS011;12385;51.412;5.540;2024-01-06T04:40:04;14.20;;;10.30;;
24261;SDS011;12385;51.412;5.540;2024-01-06T04:42:31;12.50;;;10.48;;
24261;SDS011;12385;51.412;5.540;2024-01-06T04:44:56;14.68;;;11.25;;
24261;SDS011;12385;51.412;5.540;2024-01-06T04:47:22;15.05;;;12.00;;
24261;SDS011;12385;51.412;5.540;2024-01-06T04:49:47;15.43;;;12.57;;
24261;SDS011;12385;51.412;5.540;2024-01-06T04:52:13;16.10;;;12.90;;
24261;SDS011;12385;51.412;5.540;2024-01-06T04:54:39;16.88;;;13.13;;
24261;SDS011;12385;51.412;5.540;2024-01-06T04:57:04;16.88;;;13.98;;
24261;SDS011;12385;51.412;5.540;2024-01-06T04:59:30;18.25;;;14.73;;
24261;SDS011;12385;51.412;5.540;2024-01-06T05:01:56;17.98;;;15.30;;
24261;SDS011;12385;51.412;5.540;2024-01-06T05:04:23;19.73;;;13.90;;
24261;SDS011;12385;51.412;5.540;2024-01-06T05:06:49;20.70;;;15.13;;
24261;SDS011;12385;51.412;5.540;2024-01-06T05:09:18;18.88;;;14.35;;
24261;SDS011;12385;51.412;5.540;2024-01-06T05:11:44;20.83;;;14.95;;
24261;SDS011;12385;51.412;5.540;2024-01-06T05:14:10;14.52;;;11.45;;
24261;SDS011;12385;51.412;5.540;2024-01-06T05:16:36;16.77;;;11.60;;
24261;SDS011;12385;51.412;5.540;2024-01-06T05:19:02;13.00;;;11.23;;
24261;SDS011;12385;51.412;5.540;2024-01-06T05:21:28;15.93;;;10.25;;
24261;SDS011;12385;51.412;5.540;2024-01-06T05:23:54;14.40;;;10.95;;
24261;SDS011;12385;51.412;5.540;2024-01-06T05:26:20;15.73;;;11.75;;
24261;SDS011;12385;51.412;5.540;2024-01-06T05:28:46;13.13;;;10.00;;
24261;SDS011;12385;51.412;5.540;2024-01-06T05:31:15;11.65;;;10.07;;
24261;SDS011;12385;51.412;5.540;2024-01-06T05:33:43;13.77;;;10.23;;
24261;SDS011;12385;51.412;5.540;2024-01-06T05:36:09;13.40;;;10.17;;
24261;SDS011;12385;51.412;5.540;2024-01-06T05:38:38;18.60;;;11.07;;
24261;SDS011;12385;51.412;5.540;2024-01-06T05:41:04;13.50;;;9.77;;
24261;SDS011;12385;51.412;5.540;2024-01-06T05:43:29;12.45;;;10.18;;
24261;SDS011;12385;51.412;5.540;2024-01-06T05:45:55;14.10;;;10.80;;
24261;SDS011;12385;51.412;5.540;2024-01-06T05:48:21;14.40;;;10.77;;
24261;SDS011;12385;51.412;5.540;2024-01-06T05:50:46;13.32;;;11.32;;
24261;SDS011;12385;51.412;5.540;2024-01-06T05:53:12;15.57;;;11.32;;
24261;SDS011;12385;51.412;5.540;2024-01-06T05:55:39;11.90;;;10.60;;
24261;SDS011;12385;51.412;5.540;2024-01-06T05:58:05;12.13;;;9.80;;
24261;SDS011;12385;51.412;5.540;2024-01-06T06:00:30;11.68;;;8.65;;
24261;SDS011;12385;51.412;5.540;2024-01-06T06:02:59;11.20;;;8.75;;
24261;SDS011;12385;51.412;5.540;2024-01-06T06:05:24;11.90;;;9.07;;
24261;SDS011;12385;51.412;5.540;2024-01-06T06:07:51;14.65;;;9.30;;
24261;SDS011;12385;51.412;5.540;2024-01-06T06:10:17;11.00;;;8.77;;
24261;SDS011;12385;51.412;5.540;2024-01-06T06:12:46;12.47;;;9.23;;
24261;SDS011;12385;51.412;5.540;2024-01-06T06:15:12;11.35;;;8.98;;
24261;SDS011;12385;51.412;5.540;2024-01-06T06:17:38;12.45;;;9.40;;
24261;SDS011;12385;51.412;5.540;2024-01-06T06:20:04;11.48;;;9.15;;
24261;SDS011;12385;51.412;5.540;2024-01-06T06:22:31;11.57;;;8.60;;
24261;SDS011;12385;51.412;5.540;2024-01-06T06:24:58;12.70;;;9.05;;
24261;SDS011;12385;51.412;5.540;2024-01-06T06:27:25;10.45;;;8.57;;
24261;SDS011;12385;51.412;5.540;2024-01-06T06:29:51;14.07;;;8.80;;
24261;SDS011;12385;51.412;5.540;2024-01-06T06:32:17;10.57;;;8.60;;
24261;SDS011;12385;51.412;5.540;2024-01-06T06:34:43;10.15;;;8.45;;
24261;SDS011;12385;51.412;5.540;2024-01-06T06:37:09;11.00;;;7.63;;
24261;SDS011;12385;51.412;5.540;2024-01-06T06:39:35;10.23;;;8.10;;
24261;SDS011;12385;51.412;5.540;2024-01-06T06:42:01;11.38;;;8.02;;
24261;SDS011;12385;51.412;5.540;2024-01-06T06:44:27;10.48;;;8.20;;
24261;SDS011;12385;51.412;5.540;2024-01-06T06:46:54;10.38;;;8.35;;
24261;SDS011;12385;51.412;5.540;2024-01-06T06:49:19;11.60;;;9.13;;
24261;SDS011;12385;51.412;5.540;2024-01-06T06:51:45;12.02;;;9.05;;
24261;SDS011;12385;51.412;5.540;2024-01-06T06:54:13;13.80;;;9.60;;
24261;SDS011;12385;51.412;5.540;2024-01-06T06:56:40;15.23;;;9.98;;
24261;SDS011;12385;51.412;5.540;2024-01-06T06:59:09;12.75;;;10.00;;
24261;SDS011;12385;51.412;5.540;2024-01-06T07:01:35;14.27;;;10.05;;
24261;SDS011;12385;51.412;5.540;2024-01-06T07:04:01;12.15;;;9.52;;
24261;SDS011;12385;51.412;5.540;2024-01-06T07:06:27;10.63;;;8.57;;
24261;SDS011;12385;51.412;5.540;2024-01-06T07:08:54;13.73;;;9.90;;
24261;SDS011;12385;51.412;5.540;2024-01-06T07:11:20;12.02;;;10.00;;
24261;SDS011;12385;51.412;5.540;2024-01-06T07:13:45;11.00;;;8.55;;
24261;SDS011;12385;51.412;5.540;2024-01-06T07:16:14;10.65;;;8.82;;
24261;SDS011;12385;51.412;5.540;2024-01-06T07:18:40;10.02;;;8.10;;
24261;SDS011;12385;51.412;5.540;2024-01-06T07:21:07;8.68;;;7.07;;
24261;SDS011;12385;51.412;5.540;2024-01-06T07:23:33;11.60;;;8.55;;
24261;SDS011;12385;51.412;5.540;2024-01-06T07:25:59;10.73;;;7.90;;
24261;SDS011;12385;51.412;5.540;2024-01-06T07:28:24;11.73;;;8.65;;
24261;SDS011;12385;51.412;5.540;2024-01-06T07:30:50;10.13;;;9.07;;
24261;SDS011;12385;51.412;5.540;2024-01-06T07:33:16;15.63;;;10.90;;
24261;SDS011;12385;51.412;5.540;2024-01-06T07:35:45;16.10;;;11.02;;
24261;SDS011;12385;51.412;5.540;2024-01-06T07:38:13;15.90;;;11.88;;
24261;SDS011;12385;51.412;5.540;2024-01-06T07:40:39;17.45;;;11.50;;
24261;SDS011;12385;51.412;5.540;2024-01-06T07:43:05;15.13;;;10.77;;
24261;SDS011;12385;51.412;5.540;2024-01-06T07:45:31;15.07;;;10.77;;
24261;SDS011;12385;51.412;5.540;2024-01-06T07:48:01;13.95;;;10.93;;
24261;SDS011;12385;51.412;5.540;2024-01-06T07:50:26;16.10;;;11.05;;
24261;SDS011;12385;51.412;5.540;2024-01-06T07:52:54;15.02;;;11.00;;
24261;SDS011;12385;51.412;5.540;2024-01-06T07:55:19;15.45;;;11.70;;
24261;SDS011;12385;51.412;5.540;2024-01-06T07:57:45;16.02;;;12.20;;
24261;SDS011;12385;51.412;5.540;2024-01-06T08:00:14;14.95;;;12.43;;
24261;SDS011;12385;51.412;5.540;2024-01-06T08:02:40;19.02;;;14.00;;
24261;SDS011;12385;51.412;5.540;2024-01-06T08:05:09;18.80;;;13.70;;
24261;SDS011;12385;51.412;5.540;2024-01-06T08:07:35;20.10;;;13.85;;
24261;SDS011;12385;51.412;5.540;2024-01-06T08:10:01;19.98;;;14.10;;
24261;SDS011;12385;51.412;5.540;2024-01-06T08:12:29;21.63;;;14.55;;
24261;SDS011;12385;51.412;5.540;2024-01-06T08:14:55;20.75;;;13.73;;
24261;SDS011;12385;51.412;5.540;2024-01-06T08:17:21;20.77;;;15.18;;
24261;SDS011;12385;51.412;5.540;2024-01-06T08:19:47;22.55;;;15.48;;
24261;SDS011;12385;51.412;5.540;2024-01-06T08:22:13;23.35;;;15.95;;
24261;SDS011;12385;51.412;5.540;2024-01-06T08:24:39;25.17;;;15.82;;
24261;SDS011;12385;51.412;5.540;2024-01-06T08:27:04;22.15;;;16.35;;
24261;SDS011;12385;51.412;5.540;2024-01-06T08:29:30;23.77;;;16.60;;
24261;SDS011;12385;51.412;5.540;2024-01-06T08:31:56;28.13;;;17.27;;
24261;SDS011;12385;51.412;5.540;2024-01-06T08:34:22;25.67;;;16.48;;
24261;SDS011;12385;51.412;5.540;2024-01-06T08:36:48;24.83;;;16.55;;
24261;SDS011;12385;51.412;5.540;2024-01-06T08:39:14;24.60;;;16.08;;
24261;SDS011;12385;51.412;5.540;2024-01-06T08:41:39;25.02;;;17.40;;
24261;SDS011;12385;51.412;5.540;2024-01-06T08:44:05;23.45;;;16.10;;
24261;SDS011;12385;51.412;5.540;2024-01-06T08:46:31;21.50;;;15.98;;
24261;SDS011;12385;51.412;5.540;2024-01-06T08:48:56;24.08;;;16.10;;
24261;SDS011;12385;51.412;5.540;2024-01-06T08:51:22;21.30;;;15.40;;
24261;SDS011;12385;51.412;5.540;2024-01-06T08:53:49;21.77;;;16.05;;
24261;SDS011;12385;51.412;5.540;2024-01-06T08:56:14;20.90;;;14.52;;
24261;SDS011;12385;51.412;5.540;2024-01-06T08:58:43;24.55;;;16.00;;
24261;SDS011;12385;51.412;5.540;2024-01-06T09:01:09;23.58;;;15.80;;
24261;SDS011;12385;51.412;5.540;2024-01-06T09:03:34;24.23;;;16.73;;
24261;SDS011;12385;51.412;5.540;2024-01-06T09:06:00;26.50;;;17.88;;
24261;SDS011;12385;51.412;5.540;2024-01-06T09:08:26;26.23;;;16.85;;
24261;SDS011;12385;51.412;5.540;2024-01-06T09:10:53;24.27;;;16.55;;
24261;SDS011;12385;51.412;5.540;2024-01-06T09:13:23;23.63;;;17.25;;
24261;SDS011;12385;51.412;5.540;2024-01-06T09:15:50;24.67;;;17.40;;
24261;SDS011;12385;51.412;5.540;2024-01-06T09:18:16;27.10;;;17.52;;
24261;SDS011;12385;51.412;5.540;2024-01-06T09:20:42;29.08;;;19.70;;
24261;SDS011;12385;51.412;5.540;2024-01-06T09:23:08;25.10;;;17.73;;
24261;SDS011;12385;51.412;5.540;2024-01-06T09:25:35;25.48;;;17.00;;
24261;SDS011;12385;51.412;5.540;2024-01-06T09:28:01;25.08;;;16.63;;
24261;SDS011;12385;51.412;5.540;2024-01-06T09:30:27;24.35;;;17.85;;
24261;SDS011;12385;51.412;5.540;2024-01-06T09:32:52;26.85;;;17.52;;
24261;SDS011;12385;51.412;5.540;2024-01-06T09:35:18;25.23;;;17.83;;
24261;SDS011;12385;51.412;5.540;2024-01-06T09:37:43;23.92;;;17.65;;
24261;SDS011;12385;51.412;5.540;2024-01-06T09:40:11;28.48;;;18.05;;
24261;SDS011;12385;51.412;5.540;2024-01-06T09:42:43;25.77;;;18.30;;
24261;SDS011;12385;51.412;5.540;2024-01-06T09:45:09;29.67;;;18.73;;
24261;SDS011;12385;51.412;5.540;2024-01-06T09:47:35;29.25;;;19.25;;
24261;SDS011;12385;51.412;5.540;2024-01-06T09:50:03;22.70;;;17.17;;
24261;SDS011;12385;51.412;5.540;2024-01-06T09:52:34;25.17;;;18.52;;
24261;SDS011;12385;51.412;5.540;2024-01-06T09:55:09;29.92;;;18.48;;
24261;SDS011;12385;51.412;5.540;2024-01-06T09:57:38;27.30;;;18.00;;
24261;SDS011;12385;51.412;5.540;2024-01-06T10:00:04;26.92;;;18.67;;
24261;SDS011;12385;51.412;5.540;2024-01-06T10:02:33;27.38;;;17.85;;
24261;SDS011;12385;51.412;5.540;2024-01-06T10:04:58;27.50;;;18.23;;
24261;SDS011;12385;51.412;5.540;2024-01-06T10:07:25;23.10;;;17.05;;
24261;SDS011;12385;51.412;5.540;2024-01-06T10:09:53;25.20;;;17.40;;
24261;SDS011;12385;51.412;5.540;2024-01-06T10:12:26;27.40;;;17.90;;
24261;SDS011;12385;51.412;5.540;2024-01-06T10:14:53;26.30;;;17.52;;
24261;SDS011;12385;51.412;5.540;2024-01-06T10:17:19;22.30;;;17.37;;
24261;SDS011;12385;51.412;5.540;2024-01-06T10:19:45;23.10;;;17.45;;
24261;SDS011;12385;51.412;5.540;2024-01-06T10:22:12;24.05;;;17.27;;
24261;SDS011;12385;51.412;5.540;2024-01-06T10:24:38;21.73;;;16.02;;
24261;SDS011;12385;51.412;5.540;2024-01-06T10:27:03;18.98;;;14.23;;
24261;SDS011;12385;51.412;5.540;2024-01-06T10:29:29;21.02;;;14.68;;
24261;SDS011;12385;51.412;5.540;2024-01-06T10:31:55;20.38;;;14.77;;
24261;SDS011;12385;51.412;5.540;2024-01-06T10:34:24;17.55;;;13.52;;
24261;SDS011;12385;51.412;5.540;2024-01-06T10:36:51;18.20;;;14.07;;
24261;SDS011;12385;51.412;5.540;2024-01-06T10:39:19;16.90;;;13.30;;
24261;SDS011;12385;51.412;5.540;2024-01-06T10:41:47;17.98;;;14.18;;
24261;SDS011;12385;51.412;5.540;2024-01-06T10:44:14;18.67;;;14.25;;
24261;SDS011;12385;51.412;5.540;2024-01-06T10:46:41;18.90;;;14.35;;
24261;SDS011;12385;51.412;5.540;2024-01-06T10:49:09;19.10;;;14.13;;
24261;SDS011;12385;51.412;5.540;2024-01-06T10:51:38;16.83;;;13.15;;
24261;SDS011;12385;51.412;5.540;2024-01-06T10:54:05;17.20;;;13.35;;
24261;SDS011;12385;51.412;5.540;2024-01-06T10:56:31;21.30;;;14.60;;
24261;SDS011;12385;51.412;5.540;2024-01-06T10:59:03;20.40;;;13.52;;
24261;SDS011;12385;51.412;5.540;2024-01-06T11:01:29;20.63;;;14.85;;
24261;SDS011;12385;51.412;5.540;2024-01-06T11:03:56;18.70;;;14.93;;
24261;SDS011;12385;51.412;5.540;2024-01-06T11:06:23;19.48;;;14.70;;
24261;SDS011;12385;51.412;5.540;2024-01-06T11:11:29;19.98;;;13.73;;
24261;SDS011;12385;51.412;5.540;2024-01-06T11:16:46;19.23;;;14.23;;
24261;SDS011;12385;51.412;5.540;2024-01-06T11:22:18;21.33;;;15.05;;
24261;SDS011;12385;51.412;5.540;2024-01-06T11:24:57;21.88;;;15.93;;
24261;SDS011;12385;51.412;5.540;2024-01-06T11:27:30;19.95;;;14.55;;
24261;SDS011;12385;51.412;5.540;2024-01-06T11:30:00;20.38;;;14.90;;
24261;SDS011;12385;51.412;5.540;2024-01-06T11:32:30;22.52;;;15.60;;
24261;SDS011;12385;51.412;5.540;2024-01-06T11:35:09;26.20;;;15.27;;
24261;SDS011;12385;51.412;5.540;2024-01-06T11:43:08;19.42;;;13.32;;
24261;SDS011;12385;51.412;5.540;2024-01-06T11:45:38;18.27;;;13.10;;
24261;SDS011;12385;51.412;5.540;2024-01-06T11:48:08;18.92;;;13.45;;
24261;SDS011;12385;51.412;5.540;2024-01-06T11:50:37;18.50;;;13.15;;
24261;SDS011;12385;51.412;5.540;2024-01-06T11:53:04;17.70;;;12.85;;
24261;SDS011;12385;51.412;5.540;2024-01-06T11:55:31;18.95;;;12.38;;
24261;SDS011;12385;51.412;5.540;2024-01-06T11:57:57;16.38;;;12.93;;
24261;SDS011;12385;51.412;5.540;2024-01-06T12:02:57;19.40;;;13.70;;
24261;SDS011;12385;51.412;5.540;2024-01-06T12:05:24;19.08;;;13.30;;
24261;SDS011;12385;51.412;5.540;2024-01-06T12:07:58;16.77;;;12.43;;
24261;SDS011;12385;51.412;5.540;2024-01-06T12:10:27;18.45;;;13.35;;
24261;SDS011;12385;51.412;5.540;2024-01-06T12:12:58;18.00;;;12.38;;
24261;SDS011;12385;51.412;5.540;2024-01-06T12:15:28;17.77;;;12.98;;
24261;SDS011;12385;51.412;5.540;2024-01-06T12:17:55;16.65;;;12.00;;
24261;SDS011;12385;51.412;5.540;2024-01-06T12:20:21;16.65;;;13.20;;
24261;SDS011;12385;51.412;5.540;2024-01-06T12:22:48;16.45;;;13.20;;
24261;SDS011;12385;51.412;5.540;2024-01-06T12:25:16;17.85;;;13.18;;
24261;SDS011;12385;51.412;5.540;2024-01-06T12:27:43;20.08;;;13.20;;
24261;SDS011;12385;51.412;5.540;2024-01-06T12:30:13;17.17;;;13.55;;
24261;SDS011;12385;51.412;5.540;2024-01-06T12:32:42;21.08;;;13.50;;
24261;SDS011;12385;51.412;5.540;2024-01-06T12:35:12;18.77;;;13.50;;
24261;SDS011;12385;51.412;5.540;2024-01-06T12:37:39;17.98;;;13.05;;
24261;SDS011;12385;51.412;5.540;2024-01-06T12:40:10;17.85;;;13.48;;
24261;SDS011;12385;51.412;5.540;2024-01-06T12:42:38;18.27;;;12.63;;
24261;SDS011;12385;51.412;5.540;2024-01-06T12:45:04;21.83;;;15.05;;
24261;SDS011;12385;51.412;5.540;2024-01-06T12:47:31;21.40;;;14.02;;
24261;SDS011;12385;51.412;5.540;2024-01-06T12:49:57;19.88;;;14.00;;
24261;SDS011;12385;51.412;5.540;2024-01-06T12:52:23;22.70;;;14.05;;
24261;SDS011;12385;51.412;5.540;2024-01-06T12:54:49;23.95;;;15.55;;
24261;SDS011;12385;51.412;5.540;2024-01-06T12:57:15;23.35;;;15.68;;
24261;SDS011;12385;51.412;5.540;2024-01-06T12:59:43;21.45;;;15.40;;
24261;SDS011;12385;51.412;5.540;2024-01-06T13:02:09;22.42;;;15.65;;
24261;SDS011;12385;51.412;5.540;2024-01-06T13:04:35;21.40;;;15.35;;
24261;SDS011;12385;51.412;5.540;2024-01-06T13:07:01;23.45;;;16.00;;
24261;SDS011;12385;51.412;5.540;2024-01-06T13:09:27;24.27;;;16.15;;
24261;SDS011;12385;51.412;5.540;2024-01-06T13:11:53;22.92;;;16.98;;
24261;SDS011;12385;51.412;5.540;2024-01-06T13:14:20;25.45;;;17.48;;
24261;SDS011;12385;51.412;5.540;2024-01-06T13:16:46;25.33;;;17.45;;
24261;SDS011;12385;51.412;5.540;2024-01-06T13:19:12;29.15;;;18.83;;
24261;SDS011;12385;51.412;5.540;2024-01-06T13:21:38;28.90;;;19.30;;
24261;SDS011;12385;51.412;5.540;2024-01-06T13:24:05;31.13;;;20.80;;
24261;SDS011;12385;51.412;5.540;2024-01-06T13:26:31;27.67;;;20.05;;
24261;SDS011;12385;51.412;5.540;2024-01-06T13:28:57;25.85;;;18.63;;
24261;SDS011;12385;51.412;5.540;2024-01-06T13:31:23;28.15;;;18.92;;
24261;SDS011;12385;51.412;5.540;2024-01-06T13:33:49;24.10;;;17.45;;
24261;SDS011;12385;51.412;5.540;2024-01-06T13:36:19;24.30;;;16.58;;
24261;SDS011;12385;51.412;5.540;2024-01-06T13:38:45;25.08;;;17.77;;
24261;SDS011;12385;51.412;5.540;2024-01-06T13:41:12;23.13;;;17.60;;
24261;SDS011;12385;51.412;5.540;2024-01-06T13:43:38;20.50;;;15.55;;
24261;SDS011;12385;51.412;5.540;2024-01-06T13:46:03;21.98;;;15.25;;
24261;SDS011;12385;51.412;5.540;2024-01-06T13:48:29;20.05;;;13.95;;
24261;SDS011;12385;51.412;5.540;2024-01-06T13:50:55;19.17;;;14.15;;
24261;SDS011;12385;51.412;5.540;2024-01-06T13:53:22;23.33;;;15.40;;
24261;SDS011;12385;51.412;5.540;2024-01-06T13:55:47;19.83;;;14.50;;
24261;SDS011;12385;51.412;5.540;2024-01-06T13:58:13;18.95;;;14.00;;
24261;SDS011;12385;51.412;5.540;2024-01-06T14:00:39;16.58;;;12.02;;
24261;SDS011;12385;51.412;5.540;2024-01-06T14:03:05;14.23;;;11.00;;
24261;SDS011;12385;51.412;5.540;2024-01-06T14:05:31;13.27;;;9.93;;
24261;SDS011;12385;51.412;5.540;2024-01-06T14:07:58;14.55;;;10.30;;
24261;SDS011;12385;51.412;5.540;2024-01-06T14:10:23;14.43;;;9.82;;
24261;SDS011;12385;51.412;5.540;2024-01-06T14:12:49;15.57;;;9.60;;
24261;SDS011;12385;51.412;5.540;2024-01-06T14:15:15;14.57;;;10.15;;
24261;SDS011;12385;51.412;5.540;2024-01-06T14:17:42;13.30;;;9.20;;
24261;SDS011;12385;51.412;5.540;2024-01-06T14:20:14;16.27;;;9.02;;
24261;SDS011;12385;51.412;5.540;2024-01-06T14:22:45;14.73;;;9.05;;
24261;SDS011;12385;51.412;5.540;2024-01-06T14:25:14;10.95;;;8.73;;
24261;SDS011;12385;51.412;5.540;2024-01-06T14:27:43;13.20;;;9.38;;
24261;SDS011;12385;51.412;5.540;2024-01-06T14:30:09;12.40;;;8.90;;
24261;SDS011;12385;51.412;5.540;2024-01-06T14:32:38;11.87;;;8.23;;
24261;SDS011;12385;51.412;5.540;2024-01-06T14:35:06;12.90;;;8.77;;
24261;SDS011;12385;51.412;5.540;2024-01-06T14:37:37;13.95;;;9.13;;